KCLI

Clintonville Municipal Airport

Clintonville, Wisconsin, USA
METAR KCLI 190315Z AUTO 21003KT 10SM CLR M02/M07 A2981 RMK AO2
Observed Flight Rules
Jan-19 @ 03:15 UTC (32 minutes ago) Visual Flight Rules
Wind Visibility Clouds
210° at 3 knots 10 miles
  • Clear skies
Temperatures Readings
Current -2°C / 28°F
Dewpoint -7°C / 19°F
Humidity 69%
Altimeter 29.81" Hg
Pressure 1009 hPa
Elevation 250
METAR KCLI 190315Z AUTO 21003KT 10SM CLR M02/M07 A2981 RMK AO2
Observed Flight Rules
Jan-19 @ 03:15 UTC
(32 minutes ago)
VFR
Wind Visibility
210° at 3 knots 10 miles
Clouds
  • Clear skies
Temperature Dewpoint
-2°C / 28°F -7°C / 19°F
Humidity Altimeter Pressure
69% 29.81" Hg 1009 hPa